TRA53N EHAM-LGKR
Flight info
| Callsign | TRA53N |
|---|---|
| Flight time | N/A |
| Altitude | 35000 |
| Route | EDUPO Z739 MISGO DCT DOJOH DCT DODEN DCT NEGIX DCT DINKU M867 XERUM DCT BAVAX DCT RADIZ DCT NIPEL DCT ABISO DCT NEMEK DCT NAVSU DCT TAZ DCT RODON DCT LIMJA N732 PITAS |
| Aircraft | B738/M-SDE2E3FGHIRWXY/LB1 |
Departure
| Time | N/A |
|---|---|
| Airport | Amsterdam Airport Schiphol (EHAM) |
Arrival
| Time | 2026-05-06 20:20 |
|---|---|
| Airport | Corfu Ioannis Kapodistrias International Airport (LGKR) |
| Time | Latitude | Longitude | Altitude | Speed | Heading |
|---|---|---|---|---|---|
| 2026-05-06 19:22 | 44.45953 | 16.55665 | 36981 ft | 460 kts | 154° |
| 2026-05-06 19:23 | 44.40550 | 16.60515 | 36985 ft | 460 kts | 154° |
| 2026-05-06 19:23 | 44.35198 | 16.65309 | 36996 ft | 459 kts | 154° |
| 2026-05-06 19:24 | 44.29808 | 16.70126 | 37005 ft | 459 kts | 154° |
| 2026-05-06 19:24 | 44.24409 | 16.74941 | 37014 ft | 459 kts | 154° |
| 2026-05-06 19:25 | 44.19048 | 16.79710 | 37020 ft | 459 kts | 154° |
| 2026-05-06 19:25 | 44.13643 | 16.84508 | 37016 ft | 459 kts | 154° |
| 2026-05-06 19:26 | 44.08267 | 16.89271 | 37019 ft | 460 kts | 154° |
| 2026-05-06 19:26 | 44.02857 | 16.94053 | 37024 ft | 460 kts | 154° |
| 2026-05-06 19:27 | 43.97473 | 16.98801 | 37024 ft | 461 kts | 154° |
| 2026-05-06 19:27 | 43.92043 | 17.03580 | 37032 ft | 462 kts | 154° |
| 2026-05-06 19:28 | 43.86638 | 17.08326 | 37024 ft | 463 kts | 154° |
| 2026-05-06 19:28 | 43.81186 | 17.13104 | 37026 ft | 463 kts | 154° |
| 2026-05-06 19:29 | 43.75772 | 17.17839 | 37038 ft | 462 kts | 154° |
| 2026-05-06 19:29 | 43.70365 | 17.22557 | 37039 ft | 461 kts | 155° |
| 2026-05-06 19:30 | 43.64927 | 17.27291 | 37041 ft | 461 kts | 155° |
| 2026-05-06 19:30 | 43.59479 | 17.32023 | 37051 ft | 461 kts | 155° |
| 2026-05-06 19:31 | 43.54072 | 17.36708 | 37044 ft | 462 kts | 155° |
| 2026-05-06 19:31 | 43.45918 | 17.43757 | 37051 ft | 463 kts | 155° |
| 2026-05-06 19:32 | 43.40478 | 17.48447 | 37048 ft | 464 kts | 155° |
| 2026-05-06 19:32 | 43.34991 | 17.53167 | 37042 ft | 465 kts | 155° |
| 2026-05-06 19:33 | 43.29493 | 17.57887 | 37046 ft | 465 kts | 155° |
| 2026-05-06 19:33 | 43.24027 | 17.62569 | 37041 ft | 466 kts | 155° |
| 2026-05-06 19:34 | 43.18498 | 17.67253 | 37047 ft | 464 kts | 158° |
| 2026-05-06 19:34 | 43.12828 | 17.71338 | 37055 ft | 461 kts | 160° |
| 2026-05-06 19:35 | 43.07060 | 17.75241 | 37051 ft | 462 kts | 160° |
| 2026-05-06 19:35 | 43.01337 | 17.79187 | 37047 ft | 463 kts | 160° |
| 2026-05-06 19:36 | 42.95600 | 17.83193 | 37042 ft | 463 kts | 159° |
| 2026-05-06 19:36 | 42.89861 | 17.87191 | 37056 ft | 462 kts | 159° |
| 2026-05-06 19:37 | 42.84147 | 17.91151 | 37062 ft | 463 kts | 159° |
| 2026-05-06 19:37 | 42.79326 | 17.94482 | 37059 ft | 464 kts | 159° |
| 2026-05-06 19:38 | 42.72618 | 17.99105 | 37066 ft | 464 kts | 159° |
| 2026-05-06 19:38 | 42.66882 | 18.03051 | 37070 ft | 464 kts | 159° |
| 2026-05-06 19:39 | 42.61100 | 18.07021 | 37070 ft | 464 kts | 159° |
| 2026-05-06 19:39 | 42.55351 | 18.10959 | 37071 ft | 464 kts | 159° |
| 2026-05-06 19:40 | 42.49564 | 18.14916 | 37074 ft | 464 kts | 159° |
| 2026-05-06 19:40 | 42.43819 | 18.18835 | 37075 ft | 465 kts | 159° |
| 2026-05-06 19:41 | 42.38018 | 18.22784 | 37069 ft | 465 kts | 159° |
| 2026-05-06 19:41 | 42.32230 | 18.26716 | 37067 ft | 465 kts | 159° |
| 2026-05-06 19:42 | 42.26467 | 18.30622 | 37061 ft | 465 kts | 159° |
| 2026-05-06 19:42 | 42.20662 | 18.34550 | 37061 ft | 466 kts | 159° |
| 2026-05-06 19:43 | 42.14895 | 18.38444 | 37053 ft | 466 kts | 159° |
| 2026-05-06 19:43 | 42.09064 | 18.42373 | 37051 ft | 466 kts | 159° |
| 2026-05-06 19:44 | 42.03285 | 18.46259 | 37064 ft | 467 kts | 158° |
| 2026-05-06 19:44 | 41.97456 | 18.50170 | 37059 ft | 467 kts | 158° |
| 2026-05-06 19:45 | 41.91801 | 18.53957 | 37052 ft | 467 kts | 158° |
| 2026-05-06 19:45 | 41.85960 | 18.57861 | 37049 ft | 467 kts | 158° |
| 2026-05-06 19:46 | 41.80128 | 18.61750 | 37061 ft | 468 kts | 158° |
| 2026-05-06 19:46 | 41.74313 | 18.65621 | 37059 ft | 468 kts | 158° |
| 2026-05-06 19:47 | 41.68484 | 18.69492 | 37058 ft | 468 kts | 158° |
| 2026-05-06 19:47 | 41.64636 | 18.72044 | 37055 ft | 468 kts | 158° |
| 2026-05-06 19:48 | 41.62824 | 18.73245 | 37060 ft | 467 kts | 158° |
| 2026-05-06 19:48 | 41.56989 | 18.77105 | 37061 ft | 467 kts | 158° |
| 2026-05-06 19:49 | 41.52143 | 18.80305 | 37060 ft | 467 kts | 158° |
| 2026-05-06 19:49 | 41.46300 | 18.84156 | 37061 ft | 467 kts | 158° |
| 2026-05-06 19:50 | 41.40488 | 18.87979 | 37062 ft | 467 kts | 158° |
| 2026-05-06 19:50 | 41.34644 | 18.91816 | 37061 ft | 467 kts | 158° |
| 2026-05-06 19:51 | 41.28805 | 18.95641 | 37064 ft | 467 kts | 158° |
| 2026-05-06 19:51 | 41.22981 | 18.99449 | 37068 ft | 468 kts | 158° |
| 2026-05-06 19:52 | 41.17157 | 19.03249 | 37065 ft | 469 kts | 158° |
| 2026-05-06 19:52 | 41.11279 | 19.07076 | 37066 ft | 470 kts | 158° |
| 2026-05-06 19:53 | 41.05372 | 19.10914 | 36837 ft | 476 kts | 158° |
| 2026-05-06 19:53 | 41.02424 | 19.12826 | 36577 ft | 477 kts | 158° |
| 2026-05-06 19:53 | 40.99443 | 19.14759 | 36311 ft | 474 kts | 158° |
| 2026-05-06 19:54 | 40.96486 | 19.16677 | 36048 ft | 471 kts | 158° |
| 2026-05-06 19:54 | 40.93534 | 19.18589 | 35792 ft | 471 kts | 158° |
| 2026-05-06 19:54 | 40.90624 | 19.20470 | 35550 ft | 472 kts | 158° |
| 2026-05-06 19:54 | 40.87633 | 19.22400 | 35301 ft | 473 kts | 158° |
| 2026-05-06 19:55 | 40.84708 | 19.24286 | 35061 ft | 473 kts | 158° |
| 2026-05-06 19:55 | 40.81744 | 19.26196 | 34663 ft | 473 kts | 158° |
| 2026-05-06 19:55 | 40.78774 | 19.28108 | 33993 ft | 475 kts | 158° |
| 2026-05-06 19:55 | 40.75802 | 19.30018 | 33275 ft | 475 kts | 158° |
| 2026-05-06 19:56 | 40.72826 | 19.31930 | 32574 ft | 476 kts | 157° |
| 2026-05-06 19:56 | 40.69864 | 19.33831 | 31882 ft | 476 kts | 157° |
| 2026-05-06 19:56 | 40.66880 | 19.35750 | 31168 ft | 477 kts | 157° |
| 2026-05-06 19:56 | 40.64248 | 19.37437 | 30534 ft | 478 kts | 156° |
| 2026-05-06 19:57 | 40.61261 | 19.39348 | 30009 ft | 474 kts | 156° |
| 2026-05-06 19:57 | 40.58336 | 19.41218 | 29412 ft | 470 kts | 156° |
| 2026-05-06 19:57 | 40.55399 | 19.43094 | 28888 ft | 464 kts | 156° |
| 2026-05-06 19:57 | 40.52503 | 19.44943 | 28359 ft | 459 kts | 156° |
| 2026-05-06 19:58 | 40.50286 | 19.46358 | 27985 ft | 455 kts | 156° |
| 2026-05-06 19:58 | 40.47955 | 19.47845 | 27548 ft | 452 kts | 156° |
| 2026-05-06 19:58 | 40.45124 | 19.49646 | 27013 ft | 449 kts | 157° |
| 2026-05-06 19:59 | 40.42352 | 19.51408 | 26510 ft | 445 kts | 157° |
| 2026-05-06 19:59 | 40.39559 | 19.53182 | 25994 ft | 442 kts | 157° |
| 2026-05-06 19:59 | 40.36825 | 19.54917 | 25481 ft | 439 kts | 157° |
| 2026-05-06 19:59 | 40.34079 | 19.56658 | 25002 ft | 435 kts | 157° |
| 2026-05-06 20:00 | 40.32230 | 19.57829 | 24666 ft | 433 kts | 157° |
| 2026-05-06 20:00 | 40.30954 | 19.58638 | 24423 ft | 432 kts | 157° |
| 2026-05-06 20:01 | 40.28254 | 19.60346 | 23928 ft | 430 kts | 158° |
| 2026-05-06 20:01 | 40.25559 | 19.62050 | 23379 ft | 429 kts | 158° |
| 2026-05-06 20:01 | 40.22870 | 19.63749 | 22808 ft | 426 kts | 158° |
| 2026-05-06 20:01 | 40.20209 | 19.65430 | 22289 ft | 422 kts | 158° |
| 2026-05-06 20:02 | 40.17610 | 19.67069 | 21816 ft | 418 kts | 158° |
| 2026-05-06 20:02 | 40.15005 | 19.68711 | 21323 ft | 415 kts | 157° |
| 2026-05-06 20:02 | 40.12410 | 19.70345 | 20828 ft | 412 kts | 158° |
| 2026-05-06 20:02 | 40.09827 | 19.71969 | 20343 ft | 409 kts | 158° |
| 2026-05-06 20:03 | 40.07271 | 19.73576 | 19909 ft | 405 kts | 158° |
| 2026-05-06 20:03 | 40.04780 | 19.75144 | 19835 ft | 387 kts | 158° |
| 2026-05-06 20:03 | 40.02409 | 19.76636 | 19717 ft | 369 kts | 158° |
| 2026-05-06 20:03 | 40.00156 | 19.77989 | 19599 ft | 351 kts | 165° |
| 2026-05-06 20:04 | 39.98333 | 19.78610 | 19497 ft | 335 kts | 175° |
| 2026-05-06 20:04 | 39.96055 | 19.78863 | 19151 ft | 324 kts | 185° |
| 2026-05-06 20:04 | 39.93817 | 19.78694 | 18666 ft | 322 kts | 188° |
| 2026-05-06 20:04 | 39.91575 | 19.78460 | 18162 ft | 321 kts | 189° |
| 2026-05-06 20:05 | 39.89378 | 19.78227 | 17703 ft | 318 kts | 188° |
| 2026-05-06 20:05 | 39.87179 | 19.77996 | 17238 ft | 315 kts | 188° |
| 2026-05-06 20:05 | 39.85002 | 19.77772 | 16776 ft | 313 kts | 188° |
| 2026-05-06 20:05 | 39.82833 | 19.77552 | 16313 ft | 310 kts | 188° |
| 2026-05-06 20:06 | 39.80690 | 19.77338 | 15875 ft | 308 kts | 188° |
| 2026-05-06 20:06 | 39.78587 | 19.77129 | 15445 ft | 306 kts | 188° |
| 2026-05-06 20:06 | 39.76464 | 19.76920 | 15009 ft | 303 kts | 188° |
| 2026-05-06 20:06 | 39.74366 | 19.76713 | 14599 ft | 301 kts | 188° |
| 2026-05-06 20:07 | 39.72278 | 19.76508 | 14191 ft | 299 kts | 188° |
| 2026-05-06 20:07 | 39.70205 | 19.76305 | 13786 ft | 297 kts | 187° |
| 2026-05-06 20:07 | 39.68175 | 19.76106 | 13331 ft | 295 kts | 187° |
| 2026-05-06 20:07 | 39.66130 | 19.75906 | 12885 ft | 292 kts | 187° |
| 2026-05-06 20:08 | 39.64101 | 19.75708 | 12432 ft | 290 kts | 187° |
| 2026-05-06 20:08 | 39.62092 | 19.75510 | 11974 ft | 288 kts | 187° |
| 2026-05-06 20:08 | 39.60097 | 19.75316 | 11554 ft | 286 kts | 187° |
| 2026-05-06 20:08 | 39.58117 | 19.75123 | 11116 ft | 284 kts | 187° |
| 2026-05-06 20:09 | 39.56182 | 19.74934 | 10670 ft | 282 kts | 187° |
| 2026-05-06 20:09 | 39.54222 | 19.74743 | 10227 ft | 280 kts | 186° |
| 2026-05-06 20:09 | 39.52282 | 19.74554 | 9770 ft | 278 kts | 186° |
| 2026-05-06 20:09 | 39.50396 | 19.74371 | 9557 ft | 266 kts | 186° |
| 2026-05-06 20:10 | 39.48596 | 19.74198 | 9440 ft | 252 kts | 186° |
| 2026-05-06 20:10 | 39.46867 | 19.74030 | 9155 ft | 246 kts | 186° |
| 2026-05-06 20:10 | 39.45159 | 19.73863 | 8761 ft | 245 kts | 186° |
| 2026-05-06 20:10 | 39.43502 | 19.73703 | 8558 ft | 235 kts | 186° |
| 2026-05-06 20:11 | 39.41913 | 19.73844 | 8401 ft | 224 kts | 161° |
| 2026-05-06 20:11 | 39.40672 | 19.74940 | 8297 ft | 211 kts | 132° |
| 2026-05-06 20:11 | 39.39957 | 19.76559 | 7997 ft | 207 kts | 109° |
| 2026-05-06 20:11 | 39.39766 | 19.78362 | 7688 ft | 203 kts | 92° |
| 2026-05-06 20:12 | 39.39786 | 19.80162 | 7387 ft | 198 kts | 90° |
| 2026-05-06 20:12 | 39.39821 | 19.81943 | 7025 ft | 197 kts | 91° |
| 2026-05-06 20:12 | 39.39852 | 19.83688 | 6683 ft | 195 kts | 91° |
| 2026-05-06 20:12 | 39.39880 | 19.85437 | 6336 ft | 193 kts | 91° |
| 2026-05-06 20:13 | 39.39908 | 19.87164 | 5971 ft | 191 kts | 90° |
| 2026-05-06 20:13 | 39.40158 | 19.88842 | 5607 ft | 190 kts | 76° |
| 2026-05-06 20:13 | 39.40545 | 19.90475 | 5221 ft | 190 kts | 75° |
| 2026-05-06 20:13 | 39.40926 | 19.92079 | 4855 ft | 188 kts | 75° |
| 2026-05-06 20:14 | 39.41301 | 19.93681 | 4590 ft | 179 kts | 76° |
| 2026-05-06 20:14 | 39.41654 | 19.95210 | 4253 ft | 177 kts | 76° |
| 2026-05-06 20:14 | 39.42159 | 19.96636 | 3837 ft | 179 kts | 47° |
| 2026-05-06 20:14 | 39.43258 | 19.97337 | 3431 ft | 180 kts | 0° |
| 2026-05-06 20:15 | 39.44463 | 19.96980 | 3106 ft | 177 kts | 342° |
| 2026-05-06 20:15 | 39.44985 | 19.96778 | 2966 ft | 177 kts | 343° |
| 2026-05-06 20:16 | 39.45836 | 19.96465 | 2745 ft | 178 kts | 343° |
| 2026-05-06 20:16 | 39.47018 | 19.96029 | 2477 ft | 174 kts | 343° |
| 2026-05-06 20:16 | 39.48179 | 19.95599 | 2244 ft | 173 kts | 343° |
| 2026-05-06 20:17 | 39.49335 | 19.95168 | 2025 ft | 176 kts | 343° |
| 2026-05-06 20:17 | 39.50515 | 19.94728 | 1787 ft | 176 kts | 343° |
| 2026-05-06 20:17 | 39.51686 | 19.94291 | 1525 ft | 172 kts | 343° |
| 2026-05-06 20:17 | 39.52779 | 19.93883 | 1346 ft | 157 kts | 344° |
| 2026-05-06 20:18 | 39.53826 | 19.93492 | 1134 ft | 156 kts | 343° |
| 2026-05-06 20:18 | 39.54864 | 19.93113 | 964 ft | 154 kts | 343° |
| 2026-05-06 20:18 | 39.55833 | 19.92603 | 805 ft | 152 kts | 335° |
| 2026-05-06 20:18 | 39.56822 | 19.92093 | 583 ft | 153 kts | 344° |
| 2026-05-06 20:19 | 39.57854 | 19.91820 | 360 ft | 151 kts | 348° |
| 2026-05-06 20:19 | 39.58878 | 19.91553 | 123 ft | 149 kts | 348° |
| 2026-05-06 20:19 | 39.59868 | 19.91298 | 21 ft | 133 kts | 349° |
| 2026-05-06 20:19 | 39.60559 | 19.91119 | 17 ft | 69 kts | 348° |
| 2026-05-06 20:20 | 39.60827 | 19.91049 | 19 ft | 22 kts | 348° |
| 2026-05-06 20:20 | 39.60950 | 19.91017 | 18 ft | 10 kts | 349° |
| 2026-05-06 20:20 | 39.61017 | 19.91022 | 18 ft | 10 kts | 31° |
| 2026-05-06 20:20 | 39.61055 | 19.91092 | 18 ft | 9 kts | 72° |
| 2026-05-06 20:21 | 39.61010 | 19.91136 | 20 ft | 9 kts | 171° |
| 2026-05-06 20:21 | 39.60948 | 19.91152 | 18 ft | 9 kts | 168° |
| 2026-05-06 20:21 | 39.60878 | 19.91171 | 19 ft | 12 kts | 168° |
| 2026-05-06 20:21 | 39.60786 | 19.91196 | 17 ft | 11 kts | 169° |
| 2026-05-06 20:22 | 39.60768 | 19.91205 | 19 ft | 2 kts | 138° |
| 2026-05-06 20:22 | 39.60764 | 19.91228 | 17 ft | 4 kts | 89° |
| 2026-05-06 20:22 | 39.60772 | 19.91285 | 19 ft | 8 kts | 79° |
| 2026-05-06 20:22 | 39.60775 | 19.91310 | 17 ft | 0 kts | 79° |
| 2026-05-06 20:23 | 39.60776 | 19.91311 | 17 ft | 0 kts | 79° |
| 2026-05-06 20:23 | 39.60777 | 19.91324 | 17 ft | 2 kts | 79° |
| 2026-05-06 20:23 | 39.60778 | 19.91325 | 17 ft | 0 kts | 79° |